Ardrishaig, United Kingdom
Current Conditions -  °F | °C
As of 10:50 AM on Saturday 01 Nov 2014 (Local Time) from EGPI Reporting Station
Rain Showers Rain Showers  
Wind Chill: 10°   Ceiling: 4900
Heat Index: 10°   Visibility: 6mi
Dew Point:   Wind: 18mph
Humidity: 87%   Direction: 190°S
Pressure: 29.65"   Gusts: NA
Location:  56.02°N, 5.45°W
Report Text: EGPI 011050Z AUTO 19016KT 150V220 9000 -SHRA BKN049/// 10/08 Q1004
Loading
Personal Weather Stations






























Interactive Weather Map
Tropical Storm Tracking
New forecast layout! Learn more

10-Day Weather Forecast

Advertisements
Track Severe Weather on mobile